Time;durP1;ratioP1;P1;durP2;ratioP2;P2;SDS_P1;SDS_P2;PMS_P1;PMS_P2;Temp;Humidity;BMP_temperature;BMP_pressure;BME280_temperature;BME280_humidity;BME280_pressure;Samples;Min_cycle;Max_cycle;Signal;HPM_P1;HPM_P2
2022/11/18 00:01:21;;;;;;;8.52;2.53;;;;;;;7.13;100.00;99401.56;5109336;28;20525;-54
2022/11/18 00:03:50;;;;;;;9.02;2.55;;;;;;;7.16;100.00;99405.72;5109036;28;20047;-53
2022/11/18 00:09:55;;;;;;;8.23;2.42;;;;;;;7.20;100.00;99405.38;5005564;28;20494;-52
2022/11/18 00:15:09;;;;;;;9.38;3.10;;;;;;;7.22;100.00;99402.66;5009719;28;20432;-50
2022/11/18 00:17:37;;;;;;;8.90;3.30;;;;;;;7.23;100.00;99407.78;5009738;28;20046;-52
2022/11/18 00:20:06;;;;;;;9.50;3.50;;;;;;;7.35;100.00;99408.66;5009414;28;20057;-53
2022/11/18 00:22:34;;;;;;;9.93;3.05;;;;;;;7.34;100.00;99412.22;5009301;28;20081;-51
2022/11/18 00:25:03;;;;;;;9.85;2.60;;;;;;;7.39;100.00;99420.56;5007976;28;20108;-52
2022/11/18 00:27:31;;;;;;;7.80;2.80;;;;;;;7.36;100.00;99427.78;5009652;28;20408;-52
2022/11/18 00:29:59;;;;;;;8.20;2.90;;;;;;;7.31;100.00;99433.38;5009002;28;20497;-51
2022/11/18 00:32:27;;;;;;;7.70;2.58;;;;;;;7.33;100.00;99433.25;5009411;28;20045;-51
2022/11/18 00:34:55;;;;;;;6.78;2.38;;;;;;;7.41;100.00;99439.56;5008842;28;20108;-51
2022/11/18 00:37:24;;;;;;;7.88;2.58;;;;;;;7.41;100.00;99443.97;5009525;28;20042;-52
2022/11/18 00:39:52;;;;;;;8.68;2.60;;;;;;;7.40;100.00;99443.16;5007370;28;20475;-52
2022/11/18 00:45:08;;;;;;;7.00;2.58;;;;;;;7.40;100.00;99452.75;5009506;28;20038;-52
2022/11/18 01:05:07;;;;;;;9.88;2.58;;;;;;;7.30;100.00;99460.47;5013832;22;20064;-54
2022/11/18 01:07:36;;;;;;;7.75;2.58;;;;;;;7.28;100.00;99462.38;5009265;28;20049;-55
2022/11/18 01:10:08;;;;;;;8.75;2.50;;;;;;;7.25;100.00;99468.66;5007257;28;20069;-55
2022/11/18 01:20:25;;;;;;;5.88;2.35;;;;;;;7.18;100.00;99472.63;5036548;22;20046;-54
2022/11/18 01:22:55;;;;;;;10.13;2.95;;;;;;;7.17;100.00;99477.97;5026981;28;20111;-52
2022/11/18 01:25:24;;;;;;;7.75;2.72;;;;;;;7.25;100.00;99471.28;5028148;28;20060;-54
2022/11/18 01:27:52;;;;;;;8.85;2.90;;;;;;;7.23;100.00;99481.00;5029117;28;20050;-50
2022/11/18 01:30:20;;;;;;;8.55;2.70;;;;;;;7.25;100.00;99476.50;5028776;28;20061;-52
2022/11/18 01:32:49;;;;;;;6.53;2.35;;;;;;;7.21;100.00;99471.59;5028549;28;20103;-52
2022/11/18 01:35:17;;;;;;;9.90;2.60;;;;;;;7.19;100.00;99473.50;5028499;28;20435;-54
2022/11/18 01:37:46;;;;;;;8.90;3.03;;;;;;;7.21;100.00;99477.66;5028985;28;20552;-50
2022/11/18 01:40:15;;;;;;;10.35;2.35;;;;;;;7.25;100.00;99479.13;5029100;28;20045;-53
2022/11/18 01:42:45;;;;;;;9.15;2.58;;;;;;;7.25;100.00;99491.34;5031248;28;20057;-53
2022/11/18 01:45:24;;;;;;;6.47;2.17;;;;;;;7.40;100.00;99487.63;5032582;28;20050;-51
2022/11/18 01:47:59;;;;;;;8.23;2.80;;;;;;;7.36;100.00;99495.78;5032363;28;20056;-54
2022/11/18 01:50:28;;;;;;;8.20;2.63;;;;;;;7.33;100.00;99489.00;5032329;28;20489;-47
2022/11/18 01:53:01;;;;;;;10.40;2.90;;;;;;;7.40;100.00;99498.09;5030737;28;20041;-53
2022/11/18 01:55:34;;;;;;;7.95;2.33;;;;;;;7.39;100.00;99500.78;5031964;28;20499;-48
2022/11/18 01:58:07;;;;;;;7.82;2.70;;;;;;;7.42;100.00;99500.59;5032380;28;20119;-51
2022/11/18 02:00:36;;;;;;;7.50;2.65;;;;;;;7.40;100.00;99511.16;5032237;28;20120;-52
2022/11/18 02:03:04;;;;;;;6.65;2.50;;;;;;;7.41;100.00;99512.00;5032159;28;20073;-52
2022/11/18 02:05:39;;;;;;;7.78;2.33;;;;;;;7.42;100.00;99516.28;5032216;28;20049;-48
2022/11/18 02:08:09;;;;;;;9.30;2.88;;;;;;;7.43;100.00;99516.16;5031164;28;20100;-51
2022/11/18 02:10:37;;;;;;;7.72;2.65;;;;;;;7.45;100.00;99516.03;5032027;28;20053;-51
2022/11/18 02:13:10;;;;;;;7.28;2.45;;;;;;;7.51;100.00;99520.84;5031782;28;20116;-52
2022/11/18 02:15:48;;;;;;;8.55;2.53;;;;;;;7.52;100.00;99522.50;5032290;28;20045;-52
2022/11/18 02:18:28;;;;;;;5.75;2.40;;;;;;;7.51;100.00;99520.84;5033029;28;20450;-49
2022/11/18 02:21:08;;;;;;;8.23;2.70;;;;;;;7.55;100.00;99529.28;5034347;28;20082;-50
2022/11/18 02:24:03;;;;;;;11.35;2.67;;;;;;;7.52;100.00;99530.34;5031996;28;20503;-48
2022/11/18 02:27:01;;;;;;;6.57;2.72;;;;;;;7.53;100.00;99532.00;5051046;28;20060;-47
2022/11/18 02:29:37;;;;;;;5.53;2.33;;;;;;;7.52;100.00;99527.72;5051121;28;20053;-50
2022/11/18 02:32:12;;;;;;;9.35;2.50;;;;;;;7.50;100.00;99540.09;5051352;28;20053;-49
2022/11/18 02:34:44;;;;;;;7.55;2.20;;;;;;;7.50;100.00;99542.72;5051050;28;20067;-48
2022/11/18 02:37:18;;;;;;;8.82;2.65;;;;;;;7.47;100.00;99544.72;5033454;28;20516;-50
2022/11/18 02:39:54;;;;;;;7.50;2.75;;;;;;;7.48;100.00;99549.81;5032234;28;20049;-52
2022/11/18 02:42:24;;;;;;;7.25;2.70;;;;;;;7.44;100.00;99551.84;5050882;28;20033;-48
2022/11/18 02:44:59;;;;;;;8.77;2.65;;;;;;;7.43;100.00;99542.31;5051913;28;20515;-47
2022/11/18 02:47:30;;;;;;;8.80;2.40;;;;;;;7.45;100.00;99552.66;5051175;28;20123;-51
2022/11/18 02:50:03;;;;;;;7.95;2.70;;;;;;;7.43;100.00;99549.31;5050937;28;20389;-52
2022/11/18 02:52:34;;;;;;;13.35;2.55;;;;;;;7.42;100.00;99548.50;5049728;28;20429;-50
2022/11/18 02:55:06;;;;;;;7.57;2.85;;;;;;;7.38;100.00;99552.28;5049559;28;20057;-49
2022/11/18 02:57:36;;;;;;;11.95;2.92;;;;;;;7.42;100.00;99553.72;5050288;28;20081;-50
2022/11/18 03:00:08;;;;;;;7.47;2.38;;;;;;;7.39;100.00;99556.56;5051610;28;20072;-50
2022/11/18 03:02:42;;;;;;;8.98;2.40;;;;;;;7.39;100.00;99560.94;5050972;28;20066;-49
2022/11/18 03:05:17;;;;;;;7.85;2.50;;;;;;;7.45;100.00;99560.53;5050075;28;20057;-50
2022/11/18 03:07:50;;;;;;;7.63;2.40;;;;;;;7.52;100.00;99566.16;5051345;28;20063;-49
2022/11/18 03:10:21;;;;;;;6.68;2.13;;;;;;;7.43;100.00;99563.25;5050391;28;20033;-48
2022/11/18 03:13:09;;;;;;;10.70;3.08;;;;;;;7.45;100.00;99568.38;5050702;28;20045;-49
2022/11/18 03:15:45;;;;;;;6.97;2.42;;;;;;;7.43;100.00;99570.25;5050802;28;20476;-49
2022/11/18 03:18:20;;;;;;;7.47;2.30;;;;;;;7.43;100.00;99575.47;5050079;28;20099;-48
2022/11/18 03:20:53;;;;;;;8.30;2.58;;;;;;;7.44;100.00;99577.16;5050417;28;20053;-49
2022/11/18 03:23:27;;;;;;;7.13;2.50;;;;;;;7.44;100.00;99583.25;5048798;28;20563;-48
2022/11/18 03:26:00;;;;;;;7.32;2.53;;;;;;;7.50;100.00;99584.56;5051091;28;20049;-48
2022/11/18 03:28:36;;;;;;;10.93;3.03;;;;;;;7.50;100.00;99591.56;5050525;28;20049;-50
2022/11/18 03:31:11;;;;;;;6.38;2.38;;;;;;;7.49;100.00;99590.75;5050861;28;20044;-49
2022/11/18 03:33:45;;;;;;;8.73;2.65;;;;;;;7.55;100.00;99595.53;5049578;28;20040;-48
2022/11/18 03:36:15;;;;;;;6.80;2.33;;;;;;;7.54;100.00;99588.63;5050227;28;20048;-52
2022/11/18 03:38:47;;;;;;;8.63;2.60;;;;;;;7.54;100.00;99591.25;5049219;28;20044;-52
2022/11/18 03:41:18;;;;;;;10.10;2.65;;;;;;;7.60;100.00;99595.19;5042237;28;20045;-53
2022/11/18 03:43:52;;;;;;;10.20;2.75;;;;;;;7.63;100.00;99602.00;5049792;28;20045;-52
2022/11/18 03:46:28;;;;;;;6.53;2.40;;;;;;;7.64;100.00;99609.72;5032092;28;20060;-51
2022/11/18 03:48:59;;;;;;;8.13;2.58;;;;;;;7.71;100.00;99604.88;5049590;28;20041;-50
2022/11/18 03:51:33;;;;;;;7.03;2.78;;;;;;;7.68;100.00;99610.34;5049390;28;20507;-50
2022/11/18 03:54:06;;;;;;;7.50;2.47;;;;;;;7.72;100.00;99612.63;5048275;28;20052;-48
2022/11/18 03:56:38;;;;;;;6.97;2.55;;;;;;;7.71;100.00;99617.97;5049312;28;20047;-47
2022/11/18 03:59:13;;;;;;;7.35;2.78;;;;;;;7.71;100.00;99620.59;5049912;28;20045;-47
2022/11/18 04:01:47;;;;;;;9.18;2.80;;;;;;;7.75;100.00;99622.03;5049602;28;20065;-52
2022/11/18 04:04:16;;;;;;;8.38;2.70;;;;;;;7.78;100.00;99624.44;5048806;28;20051;-48
2022/11/18 04:06:49;;;;;;;6.97;2.42;;;;;;;7.82;100.00;99630.28;5050045;28;20076;-49
2022/11/18 04:09:22;;;;;;;5.97;2.35;;;;;;;7.79;100.00;99632.16;5048062;28;20487;-47
2022/11/18 04:12:03;;;;;;;8.70;2.58;;;;;;;7.78;100.00;99634.91;5049597;28;20534;-49
2022/11/18 04:14:33;;;;;;;6.47;2.70;;;;;;;7.77;100.00;99634.06;5048969;28;20041;-48
2022/11/18 04:17:07;;;;;;;8.98;2.95;;;;;;;7.81;100.00;99641.69;5049656;28;20106;-47
2022/11/18 04:19:36;;;;;;;7.63;2.50;;;;;;;7.86;100.00;99642.19;5048272;28;20092;-48
2022/11/18 04:22:04;;;;;;;8.38;3.00;;;;;;;7.83;100.00;99648.50;5049895;28;20102;-52
2022/11/18 04:24:32;;;;;;;10.48;3.03;;;;;;;7.84;100.00;99652.78;5047047;28;20037;-50
2022/11/18 04:27:01;;;;;;;9.32;3.20;;;;;;;7.83;100.00;99655.53;5049292;28;20053;-52
2022/11/18 04:29:29;;;;;;;8.20;3.05;;;;;;;7.84;100.00;99658.03;5049003;28;20048;-50
2022/11/18 04:31:58;;;;;;;7.60;2.90;;;;;;;7.83;100.00;99658.13;5049346;28;20107;-51
2022/11/18 04:34:28;;;;;;;8.75;3.05;;;;;;;7.86;100.00;99656.13;5047896;28;20072;-49
2022/11/18 04:36:56;;;;;;;10.38;2.83;;;;;;;7.89;100.00;99665.53;5049260;28;20045;-48
2022/11/18 04:39:24;;;;;;;8.07;2.63;;;;;;;7.89;100.00;99665.53;5047358;28;20064;-53
2022/11/18 04:41:55;;;;;;;9.52;3.35;;;;;;;7.92;100.00;99662.69;5048748;28;20544;-52
2022/11/18 04:44:24;;;;;;;9.63;2.80;;;;;;;7.90;100.00;99673.28;5048627;28;20067;-48
2022/11/18 04:46:53;;;;;;;7.72;3.30;;;;;;;7.87;100.00;99673.50;5030731;28;20060;-50
2022/11/18 04:49:21;;;;;;;7.70;2.70;;;;;;;7.93;100.00;99675.69;5047661;28;20490;-49
2022/11/18 04:51:52;;;;;;;7.95;2.88;;;;;;;7.93;100.00;99674.84;5049062;28;20053;-52
2022/11/18 04:54:21;;;;;;;9.82;3.10;;;;;;;7.92;100.00;99681.00;5046667;28;20377;-53
2022/11/18 04:56:49;;;;;;;8.45;2.60;;;;;;;7.91;100.00;99680.19;5048685;28;20053;-52
2022/11/18 04:59:19;;;;;;;11.68;3.17;;;;;;;7.93;100.00;99687.91;5048508;28;20057;-51
2022/11/18 05:01:48;;;;;;;9.32;2.85;;;;;;;7.94;100.00;99694.84;5048711;28;20138;-51
2022/11/18 05:04:18;;;;;;;5.90;2.53;;;;;;;8.03;100.00;99690.69;5048022;28;20127;-51
2022/11/18 05:06:46;;;;;;;10.27;2.97;;;;;;;8.06;100.00;99693.94;5049310;28;20048;-49
2022/11/18 05:09:16;;;;;;;8.82;3.22;;;;;;;8.03;100.00;99698.56;5046988;28;20496;-52
2022/11/18 05:14:31;;;;;;;8.90;2.63;;;;;;;8.01;100.00;99700.47;5047632;28;20052;-50
2022/11/18 05:17:01;;;;;;;8.20;3.25;;;;;;;8.03;100.00;99702.03;5052589;28;20067;-53
2022/11/18 05:19:29;;;;;;;9.55;3.67;;;;;;;7.93;100.00;99704.47;5051534;28;20504;-55
2022/11/18 05:21:58;;;;;;;10.38;3.20;;;;;;;7.97;100.00;99704.25;5052869;28;20056;-52
2022/11/18 05:24:27;;;;;;;14.13;3.55;;;;;;;8.05;100.00;99710.59;5050719;28;20122;-51
2022/11/18 05:26:56;;;;;;;8.93;3.20;;;;;;;8.08;100.00;99706.91;5052714;28;20057;-50
2022/11/18 05:29:24;;;;;;;9.77;3.58;;;;;;;7.97;100.00;99712.09;5051873;28;20512;-53
2022/11/18 05:31:52;;;;;;;7.32;3.47;;;;;;;7.98;100.00;99719.03;5052534;28;20106;-53
2022/11/18 05:34:20;;;;;;;10.63;3.58;;;;;;;7.98;100.00;99725.09;5051214;28;20080;-51
2022/11/18 05:36:48;;;;;;;10.63;4.32;;;;;;;8.01;100.00;99716.19;5034906;28;20095;-50
2022/11/18 05:39:17;;;;;;;11.60;3.78;;;;;;;8.02;100.00;99725.72;5050677;28;20068;-52
2022/11/18 05:44:32;;;;;;;9.50;3.55;;;;;;;8.01;100.00;99726.66;5033664;28;20475;-49
2022/11/18 05:47:00;;;;;;;9.85;3.70;;;;;;;8.04;100.00;99723.81;5052526;28;20041;-53
2022/11/18 05:49:28;;;;;;;10.20;3.30;;;;;;;8.02;100.00;99723.09;5051027;28;20077;-50
2022/11/18 05:51:57;;;;;;;8.23;3.35;;;;;;;8.00;100.00;99740.69;5052312;28;20124;-51
2022/11/18 05:54:26;;;;;;;8.40;3.33;;;;;;;7.96;100.00;99734.81;5049636;28;20041;-54
2022/11/18 05:56:55;;;;;;;10.65;3.22;;;;;;;7.95;100.00;99738.41;5051692;28;20577;-52
2022/11/18 05:59:24;;;;;;;10.20;3.53;;;;;;;7.94;100.00;99744.59;5051272;28;20056;-52
2022/11/18 06:01:56;;;;;;;9.00;3.30;;;;;;;7.95;100.00;99743.66;5051829;28;20059;-53
2022/11/18 06:04:30;;;;;;;9.40;3.45;;;;;;;7.94;100.00;99744.59;5050950;28;20052;-51
2022/11/18 06:07:00;;;;;;;7.97;3.15;;;;;;;7.94;100.00;99753.25;5051884;28;20037;-52
2022/11/18 06:09:32;;;;;;;6.10;2.70;;;;;;;7.94;100.00;99749.81;5049431;28;20538;-52
2022/11/18 06:12:05;;;;;;;10.13;3.30;;;;;;;7.94;100.00;99755.88;5051816;28;20052;-50
2022/11/18 06:14:39;;;;;;;10.20;3.13;;;;;;;7.93;100.00;99756.00;5050804;28;20052;-52
2022/11/18 06:17:19;;;;;;;7.90;2.90;;;;;;;7.92;100.00;99765.63;5051424;28;20048;-53
2022/11/18 06:19:47;;;;;;;7.35;2.88;;;;;;;7.90;100.00;99772.75;5050904;28;20404;-51
2022/11/18 06:22:16;;;;;;;9.63;3.35;;;;;;;7.90;100.00;99777.16;5051039;28;20131;-50
2022/11/18 06:24:45;;;;;;;9.98;3.30;;;;;;;7.94;100.00;99779.44;5050160;28;20535;-52
2022/11/18 06:27:15;;;;;;;8.55;3.53;;;;;;;7.90;100.00;99779.78;5049654;28;20060;-52
2022/11/18 06:29:43;;;;;;;7.72;3.38;;;;;;;7.87;100.00;99778.22;5051614;28;20072;-53
2022/11/18 06:32:12;;;;;;;7.88;3.05;;;;;;;7.89;100.00;99783.34;5050918;28;20115;-49
2022/11/18 06:34:40;;;;;;;9.80;3.70;;;;;;;7.84;100.00;99791.53;5050857;28;20487;-49
2022/11/18 06:37:16;;;;;;;8.57;3.63;;;;;;;7.84;100.00;99791.53;5051492;28;20404;-50
2022/11/18 06:39:44;;;;;;;7.07;3.60;;;;;;;7.86;100.00;99801.88;5049591;28;20463;-51
2022/11/18 06:44:58;;;;;;;9.57;3.63;;;;;;;7.70;100.00;99807.34;5050489;28;20132;-51
2022/11/18 06:47:27;;;;;;;8.80;3.55;;;;;;;7.61;100.00;99814.06;5050430;28;20057;-53
2022/11/18 06:49:55;;;;;;;8.25;3.83;;;;;;;7.61;100.00;99808.84;5050480;28;20482;-52
2022/11/18 06:52:24;;;;;;;9.43;3.53;;;;;;;7.57;100.00;99810.81;5050648;28;20215;-53
2022/11/18 06:54:52;;;;;;;10.25;3.67;;;;;;;7.52;100.00;99823.38;5049209;28;20091;-52
2022/11/18 06:57:21;;;;;;;9.88;3.80;;;;;;;7.48;100.00;99828.94;5049657;28;20053;-53
2022/11/18 06:59:49;;;;;;;9.35;3.88;;;;;;;7.40;100.00;99824.22;5050913;28;20088;-52
2022/11/18 07:02:18;;;;;;;11.75;4.20;;;;;;;7.36;100.00;99827.97;5049962;28;20503;-51
2022/11/18 07:04:46;;;;;;;9.02;3.47;;;;;;;7.37;100.00;99838.34;5049982;28;20052;-50
2022/11/18 07:07:14;;;;;;;7.57;3.35;;;;;;;7.31;100.00;99843.13;5050249;28;20571;-53
2022/11/18 07:09:43;;;;;;;8.00;3.40;;;;;;;7.31;100.00;99848.38;5049090;28;20487;-53
2022/11/18 07:12:11;;;;;;;7.95;3.65;;;;;;;7.32;100.00;99853.53;5049825;28;20531;-54
2022/11/18 07:14:41;;;;;;;8.70;3.75;;;;;;;7.31;100.00;99858.84;5050086;28;20373;-52
2022/11/18 07:17:09;;;;;;;8.73;3.58;;;;;;;7.24;100.00;99855.78;5049849;28;20041;-51
2022/11/18 07:19:37;;;;;;;7.57;3.58;;;;;;;7.24;100.00;99858.41;5049034;28;20520;-52
2022/11/18 07:22:06;;;;;;;8.90;3.80;;;;;;;7.20;100.00;99867.41;5032435;28;20053;-52
2022/11/18 07:24:34;;;;;;;7.63;3.63;;;;;;;7.18;100.00;99866.66;5048192;28;20107;-50
2022/11/18 07:27:03;;;;;;;8.70;3.28;;;;;;;7.14;100.00;99871.25;5049892;28;20037;-52
2022/11/18 07:29:31;;;;;;;7.68;3.35;;;;;;;7.14;100.00;99878.28;5049832;28;20060;-52
2022/11/18 07:32:00;;;;;;;7.65;3.85;;;;;;;7.11;100.00;99877.53;5050460;28;20463;-51
2022/11/18 07:34:28;;;;;;;8.18;3.42;;;;;;;7.10;100.00;99888.94;5031193;28;20052;-51
2022/11/18 07:36:56;;;;;;;8.05;3.58;;;;;;;7.14;100.00;99884.34;5050158;28;20065;-52
2022/11/18 07:39:25;;;;;;;9.70;3.78;;;;;;;7.19;100.00;99889.28;5048104;28;20164;-51
2022/11/18 07:41:53;;;;;;;9.30;4.05;;;;;;;7.21;100.00;99888.25;5049689;28;20053;-50
2022/11/18 07:44:21;;;;;;;9.75;3.30;;;;;;;7.25;100.00;99891.47;5049495;28;20033;-51
2022/11/18 07:46:49;;;;;;;8.07;3.72;;;;;;;7.30;100.00;99899.03;5049786;28;20049;-51
2022/11/18 07:49:18;;;;;;;8.25;3.75;;;;;;;7.37;100.00;99903.72;5048736;28;20049;-53
2022/11/18 07:51:47;;;;;;;7.85;3.72;;;;;;;7.39;100.00;99914.09;5032424;28;20037;-53
2022/11/18 07:54:15;;;;;;;8.77;3.72;;;;;;;7.37;100.00;99911.56;5047700;28;20115;-51
2022/11/18 07:56:44;;;;;;;9.60;4.03;;;;;;;7.31;100.00;99912.00;5049429;28;20502;-53
2022/11/18 07:59:12;;;;;;;8.68;3.67;;;;;;;7.27;100.00;99913.16;5049138;28;20124;-52
2022/11/18 08:01:40;;;;;;;11.20;3.88;;;;;;;7.27;100.00;99918.38;5049256;28;20072;-52
2022/11/18 08:04:10;;;;;;;6.45;3.30;;;;;;;7.28;100.00;99925.28;5048998;28;20059;-53
2022/11/18 08:06:40;;;;;;;9.70;4.20;;;;;;;7.27;100.00;99932.28;5049592;28;20044;-53
2022/11/18 08:09:08;;;;;;;9.10;3.95;;;;;;;7.30;100.00;99927.81;5047724;28;20058;-50
2022/11/18 08:11:36;;;;;;;10.57;3.88;;;;;;;7.24;100.00;99935.09;5049051;28;20045;-53
2022/11/18 08:14:04;;;;;;;10.70;4.10;;;;;;;7.28;100.00;99936.56;5049429;28;20057;-51
2022/11/18 08:16:33;;;;;;;8.77;3.72;;;;;;;7.45;100.00;99945.91;5048678;28;20048;-51
2022/11/18 08:19:01;;;;;;;9.82;3.58;;;;;;;7.64;100.00;99949.09;5048718;28;20148;-51
2022/11/18 08:21:29;;;;;;;9.43;4.07;;;;;;;7.81;100.00;99940.09;5049102;28;20037;-52
2022/11/18 08:23:58;;;;;;;8.32;4.10;;;;;;;7.90;100.00;99950.78;5047845;28;20834;-49
2022/11/18 08:26:28;;;;;;;8.88;3.90;;;;;;;7.99;100.00;99959.81;5048451;28;20056;-50
2022/11/18 08:28:57;;;;;;;11.32;4.20;;;;;;;8.04;100.00;99959.47;5049791;28;20068;-54
2022/11/18 08:31:27;;;;;;;8.98;3.88;;;;;;;8.05;100.00;99959.38;5048885;28;20057;-54
2022/11/18 08:33:56;;;;;;;10.18;4.65;;;;;;;8.06;100.00;99965.47;5048825;28;20060;-52
2022/11/18 08:36:26;;;;;;;8.45;4.25;;;;;;;8.16;100.00;99961.25;5048266;28;20052;-51
2022/11/18 08:38:56;;;;;;;8.85;4.35;;;;;;;8.12;100.00;99970.25;5047618;28;20139;-53
2022/11/18 08:41:31;;;;;;;10.05;5.00;;;;;;;8.11;100.00;99969.44;5048641;28;20068;-51
2022/11/18 08:43:59;;;;;;;9.98;4.32;;;;;;;8.20;100.00;99967.94;5049301;28;20056;-53
2022/11/18 08:46:27;;;;;;;8.82;4.05;;;;;;;8.26;100.00;99970.16;5048786;28;20053;-53
2022/11/18 08:48:55;;;;;;;9.60;3.97;;;;;;;8.32;100.00;99970.66;5048876;28;20049;-51
2022/11/18 08:51:23;;;;;;;11.70;4.43;;;;;;;8.44;100.00;99967.22;5030223;28;20049;-49
2022/11/18 08:53:52;;;;;;;8.68;3.97;;;;;;;8.42;100.00;99974.31;5047110;28;20520;-52
2022/11/18 08:56:22;;;;;;;9.07;4.60;;;;;;;8.42;100.00;99977.78;5048147;28;20049;-52
2022/11/18 08:58:53;;;;;;;9.18;4.13;;;;;;;8.48;100.00;99975.72;5049002;28;20508;-52
2022/11/18 09:01:21;;;;;;;9.73;3.92;;;;;;;8.50;100.00;99973.84;5048933;28;20127;-53
2022/11/18 09:03:50;;;;;;;9.75;4.15;;;;;;;8.56;100.00;99987.34;5048978;28;20128;-51
2022/11/18 09:06:20;;;;;;;7.80;4.22;;;;;;;8.54;100.00;99985.78;5048672;28;20483;-50
2022/11/18 09:08:48;;;;;;;8.45;4.18;;;;;;;8.53;100.00;99984.09;5047507;28;20048;-51
2022/11/18 09:11:18;;;;;;;9.43;4.07;;;;;;;8.51;100.00;99989.44;5048457;28;20075;-54
2022/11/18 09:13:46;;;;;;;7.28;3.85;;;;;;;8.68;100.00;100001.34;5049057;28;20052;-56
2022/11/18 09:16:36;;;;;;;9.18;3.97;;;;;;;8.73;100.00;100001.03;5047943;28;20049;-54
2022/11/18 09:19:04;;;;;;;11.60;3.92;;;;;;;8.64;100.00;100005.13;5030266;28;20114;-55
2022/11/18 09:21:52;;;;;;;8.85;3.88;;;;;;;8.71;100.00;100008.16;5049160;28;20040;-53
2022/11/18 09:24:20;;;;;;;9.25;3.65;;;;;;;8.88;100.00;99999.94;5047196;28;20041;-52
2022/11/18 09:26:49;;;;;;;8.40;4.10;;;;;;;8.95;100.00;100002.97;5048967;28;20488;-52
2022/11/18 09:29:17;;;;;;;11.70;4.18;;;;;;;9.03;100.00;100008.50;5030677;28;20110;-49
2022/11/18 09:31:46;;;;;;;10.20;4.10;;;;;;;9.06;100.00;100004.81;5031260;28;20045;-51
2022/11/18 09:34:14;;;;;;;8.32;4.43;;;;;;;8.98;100.00;100015.03;5048253;28;20420;-51
2022/11/18 09:36:43;;;;;;;11.23;4.53;;;;;;;9.21;100.00;100016.81;5048546;28;20053;-52
2022/11/18 09:39:11;;;;;;;10.18;4.50;;;;;;;9.35;100.00;100018.44;5039618;28;20123;-54
2022/11/18 09:41:45;;;;;;;14.13;4.40;;;;;;;9.53;100.00;100018.88;5048669;28;20449;-52
2022/11/18 09:44:31;;;;;;;9.48;4.25;;;;;;;9.52;100.00;100026.88;5048501;28;20063;-56
2022/11/18 09:47:11;;;;;;;8.35;3.65;;;;;;;9.95;100.00;100032.38;5048841;28;20471;-55
2022/11/18 09:49:42;;;;;;;8.63;4.53;;;;;;;10.21;100.00;100032.19;5048079;28;20053;-55
2022/11/18 09:52:16;;;;;;;7.88;3.63;;;;;;;10.42;100.00;100045.50;5048993;28;20056;-56
2022/11/18 09:54:45;;;;;;;9.15;4.20;;;;;;;10.40;100.00;100047.44;5047481;28;20107;-56
2022/11/18 09:57:16;;;;;;;7.55;3.97;;;;;;;10.27;100.00;100052.75;5048268;28;20381;-57
2022/11/18 09:59:44;;;;;;;8.43;4.45;;;;;;;10.35;100.00;100053.97;5049186;28;20049;-57
2022/11/18 10:02:48;;;;;;;9.75;4.43;;;;;;;10.32;100.00;100055.84;5050438;28;20118;-57
2022/11/18 10:05:19;;;;;;;9.30;3.75;;;;;;;10.30;100.00;100062.19;5038742;28;20063;-55
2022/11/18 10:07:55;;;;;;;7.50;3.35;;;;;;;10.39;100.00;100055.41;5052224;28;20563;-54
2022/11/18 10:10:30;;;;;;;8.18;3.38;;;;;;;10.28;100.00;100066.72;5051994;28;20053;-54
2022/11/18 10:13:04;;;;;;;7.95;3.92;;;;;;;10.38;100.00;100069.53;5052215;28;20496;-54
2022/11/18 10:15:37;;;;;;;8.60;4.50;;;;;;;10.23;100.00;100072.31;5051910;28;20484;-56
2022/11/18 10:18:20;;;;;;;9.52;4.03;;;;;;;10.27;100.00;100071.13;5051619;28;20049;-57
2022/11/18 10:21:19;;;;;;;11.75;3.80;;;;;;;10.23;100.00;100068.88;5032397;28;20049;-54
2022/11/18 10:23:53;;;;;;;8.43;3.88;;;;;;;10.26;100.00;100076.50;5012288;28;20068;-57
2022/11/18 10:26:35;;;;;;;11.10;3.50;;;;;;;10.09;100.00;100072.50;5031621;28;20060;-57
2022/11/18 10:29:06;;;;;;;8.85;3.95;;;;;;;10.23;100.00;100076.75;5032247;28;20045;-53
2022/11/18 10:31:37;;;;;;;8.95;3.67;;;;;;;10.27;100.00;100078.19;5013410;28;20045;-57
2022/11/18 10:34:10;;;;;;;7.68;3.60;;;;;;;10.11;100.00;100084.59;5031273;28;20773;-57
2022/11/18 10:36:40;;;;;;;7.38;3.80;;;;;;;10.20;100.00;100082.22;5031241;28;20496;-58
2022/11/18 10:39:13;;;;;;;9.57;3.80;;;;;;;10.14;100.00;100083.53;5029676;28;20176;-56
2022/11/18 10:41:46;;;;;;;7.47;3.45;;;;;;;10.05;100.00;100089.47;5013742;28;20574;-56
2022/11/18 10:44:38;;;;;;;10.82;4.25;;;;;;;10.23;100.00;100093.34;5030982;28;20107;-57
2022/11/18 10:47:17;;;;;;;7.00;3.42;;;;;;;10.16;100.00;100089.50;5031224;28;20046;-56
2022/11/18 10:49:46;;;;;;;11.57;4.18;;;;;;;10.13;100.00;100093.22;5030131;28;20049;-57
2022/11/18 10:52:15;;;;;;;6.43;3.38;;;;;;;10.20;100.00;100093.59;5030693;28;20069;-56
2022/11/18 10:54:43;;;;;;;10.07;3.67;;;;;;;10.24;100.00;100088.91;5029515;28;20488;-56
2022/11/18 10:57:20;;;;;;;8.60;3.40;;;;;;;10.32;100.00;100097.91;5030290;28;20044;-56
2022/11/18 10:59:51;;;;;;;11.93;4.07;;;;;;;10.33;100.00;100093.47;5012828;28;20053;-57
2022/11/18 11:02:24;;;;;;;8.68;3.58;;;;;;;10.39;100.00;100093.06;5030121;28;20103;-56
2022/11/18 11:04:54;;;;;;;8.63;3.50;;;;;;;10.44;100.00;100103.22;5030541;28;20124;-56
2022/11/18 11:07:27;;;;;;;9.18;4.18;;;;;;;10.39;100.00;100100.94;5030097;28;20764;-57
2022/11/18 11:10:18;;;;;;;10.40;3.80;;;;;;;10.34;100.00;100099.59;5029502;28;20496;-57
2022/11/18 11:12:52;;;;;;;9.80;3.78;;;;;;;10.46;100.00;100109.19;5029636;28;20104;-56
2022/11/18 11:15:27;;;;;;;6.57;3.28;;;;;;;10.41;100.00;100106.91;5030126;28;20122;-57
2022/11/18 11:20:46;;;;;;;10.38;3.92;;;;;;;10.36;100.00;100106.44;5048571;28;20057;-57
2022/11/18 11:23:15;;;;;;;8.02;3.50;;;;;;;10.36;100.00;100105.59;5048600;28;20076;-57
2022/11/18 11:25:58;;;;;;;12.15;4.07;;;;;;;10.31;100.00;100108.53;5050187;28;20110;-56
2022/11/18 11:28:53;;;;;;;12.07;4.43;;;;;;;10.30;100.00;100109.50;5050329;28;20056;-57
2022/11/18 11:31:27;;;;;;;10.60;4.72;;;;;;;10.38;100.00;100114.22;5032620;28;20102;-57
2022/11/18 11:34:05;;;;;;;8.15;4.90;;;;;;;10.48;100.00;100112.53;5050019;28;20377;-57
2022/11/18 11:36:47;;;;;;;11.00;4.20;;;;;;;10.48;100.00;100113.41;5049521;28;20127;-57
2022/11/18 11:39:40;;;;;;;10.93;4.10;;;;;;;10.60;100.00;100122.09;5048651;28;20052;-56
2022/11/18 11:42:13;;;;;;;;;;;;;;;10.63;100.00;100124.53;5050280;28;20087;-57
2022/11/18 11:44:56;;;;;;;10.02;3.92;;;;;;;10.56;100.00;100120.69;5050279;28;19920;-57
2022/11/18 11:47:46;;;;;;;10.15;4.15;;;;;;;10.68;100.00;100121.53;5049934;28;20040;-54
2022/11/18 11:50:22;;;;;;;12.18;4.28;;;;;;;10.69;100.00;100119.72;5049764;28;20626;-54
2022/11/18 11:53:08;;;;;;;8.82;4.07;;;;;;;10.59;100.00;100120.47;5049049;28;20067;-56
2022/11/18 11:55:50;;;;;;;10.38;4.30;;;;;;;10.65;100.00;100117.34;5049359;28;20044;-56
2022/11/18 11:58:33;;;;;;;10.93;4.25;;;;;;;10.60;100.00;100116.03;5049030;28;20045;-56
2022/11/18 12:01:10;;;;;;;11.27;3.67;;;;;;;10.61;100.00;100110.66;5050189;28;20060;-58
2022/11/18 12:03:46;;;;;;;7.93;3.80;;;;;;;10.61;100.00;100117.72;5030732;28;20461;-56
2022/11/18 12:06:19;;;;;;;13.15;4.63;;;;;;;10.42;100.00;100116.47;5049494;28;20063;-57
2022/11/18 12:09:02;;;;;;;13.00;3.90;;;;;;;10.48;100.00;100123.06;5047940;28;20056;-57
2022/11/18 12:11:36;;;;;;;13.10;4.75;;;;;;;10.53;100.00;100120.91;5049033;28;20059;-57
2022/11/18 12:14:12;;;;;;;14.98;3.90;;;;;;;10.44;100.00;100127.72;5049515;28;20045;-56
2022/11/18 12:16:46;;;;;;;9.05;4.30;;;;;;;10.32;100.00;100126.81;5049108;28;20098;-56
2022/11/18 12:19:17;;;;;;;9.88;4.30;;;;;;;10.34;100.00;100123.25;5048520;28;20056;-56
2022/11/18 12:22:04;;;;;;;9.77;4.10;;;;;;;10.37;100.00;100125.66;5049647;28;20045;-56
2022/11/18 12:24:38;;;;;;;10.05;3.92;;;;;;;10.28;100.00;100122.75;5046475;28;20072;-56
2022/11/18 12:27:12;;;;;;;8.48;4.20;;;;;;;10.29;100.00;100132.31;5049006;28;20098;-56
2022/11/18 12:29:55;;;;;;;8.02;4.50;;;;;;;10.29;100.00;100129.69;5049390;28;20141;-58
2022/11/18 12:32:29;;;;;;;8.25;4.40;;;;;;;10.29;100.00;100134.94;5048330;28;20393;-56
2022/11/18 12:35:01;;;;;;;14.00;7.35;;;;;;;10.36;100.00;100126.63;5048610;28;20106;-56